sensor_id;sensor_type;location;lat;lon;timestamp;temperature;humidity
57652;DHT22;43480;53.116;6.734;2023-02-01T00:00:57;6.40;99.90
57652;DHT22;43480;53.116;6.734;2023-02-01T00:03:22;6.40;99.90
57652;DHT22;43480;53.116;6.734;2023-02-01T00:05:55;6.30;99.90
57652;DHT22;43480;53.116;6.734;2023-02-01T00:08:21;6.40;99.90
57652;DHT22;43480;53.116;6.734;2023-02-01T00:10:47;6.40;99.90
57652;DHT22;43480;53.116;6.734;2023-02-01T00:13:12;6.40;99.90
57652;DHT22;43480;53.116;6.734;2023-02-01T00:15:37;6.40;99.90
57652;DHT22;43480;53.116;6.734;2023-02-01T00:18:03;6.40;99.90
57652;DHT22;43480;53.116;6.734;2023-02-01T00:20:28;6.40;99.90
57652;DHT22;43480;53.116;6.734;2023-02-01T00:22:54;6.50;99.90
57652;DHT22;43480;53.116;6.734;2023-02-01T00:25:21;6.40;99.90
57652;DHT22;43480;53.116;6.734;2023-02-01T00:27:49;6.50;99.90
57652;DHT22;43480;53.116;6.734;2023-02-01T00:30:16;6.50;99.90
57652;DHT22;43480;53.116;6.734;2023-02-01T00:32:42;6.50;99.90
57652;DHT22;43480;53.116;6.734;2023-02-01T00:35:08;6.50;99.90
57652;DHT22;43480;53.116;6.734;2023-02-01T00:37:33;6.50;99.90
57652;DHT22;43480;53.116;6.734;2023-02-01T00:39:59;6.50;99.90
57652;DHT22;43480;53.116;6.734;2023-02-01T00:42:24;6.50;99.90
57652;DHT22;43480;53.116;6.734;2023-02-01T00:44:50;6.50;99.90
57652;DHT22;43480;53.116;6.734;2023-02-01T00:47:15;6.50;99.90
57652;DHT22;43480;53.116;6.734;2023-02-01T00:49:41;6.50;99.90
57652;DHT22;43480;53.116;6.734;2023-02-01T00:52:06;6.50;99.90
57652;DHT22;43480;53.116;6.734;2023-02-01T00:54:32;6.50;99.90
57652;DHT22;43480;53.116;6.734;2023-02-01T00:56:58;6.50;99.90
57652;DHT22;43480;53.116;6.734;2023-02-01T00:59:23;6.50;99.90
57652;DHT22;43480;53.116;6.734;2023-02-01T01:01:49;6.40;99.90
57652;DHT22;43480;53.116;6.734;2023-02-01T01:04:14;6.50;99.90
57652;DHT22;43480;53.116;6.734;2023-02-01T01:06:40;6.50;99.90
57652;DHT22;43480;53.116;6.734;2023-02-01T01:09:06;6.50;99.90
57652;DHT22;43480;53.116;6.734;2023-02-01T01:11:34;6.40;99.90
57652;DHT22;43480;53.116;6.734;2023-02-01T01:14:00;6.40;99.90
57652;DHT22;43480;53.116;6.734;2023-02-01T01:16:26;6.50;99.90
57652;DHT22;43480;53.116;6.734;2023-02-01T01:18:52;6.50;99.90
57652;DHT22;43480;53.116;6.734;2023-02-01T01:21:17;6.50;99.90
57652;DHT22;43480;53.116;6.734;2023-02-01T01:23:43;6.50;99.90
57652;DHT22;43480;53.116;6.734;2023-02-01T01:26:13;6.50;99.90
57652;DHT22;43480;53.116;6.734;2023-02-01T01:28:39;6.50;99.90
57652;DHT22;43480;53.116;6.734;2023-02-01T01:31:07;6.50;99.90
57652;DHT22;43480;53.116;6.734;2023-02-01T01:33:33;6.50;99.90
57652;DHT22;43480;53.116;6.734;2023-02-01T01:35:58;6.50;99.90
57652;DHT22;43480;53.116;6.734;2023-02-01T01:38:24;6.50;99.90
57652;DHT22;43480;53.116;6.734;2023-02-01T01:40:49;6.50;99.90
57652;DHT22;43480;53.116;6.734;2023-02-01T01:43:16;6.60;99.90
57652;DHT22;43480;53.116;6.734;2023-02-01T01:45:42;6.50;99.90
57652;DHT22;43480;53.116;6.734;2023-02-01T01:48:16;6.60;99.90
57652;DHT22;43480;53.116;6.734;2023-02-01T01:50:45;6.60;99.90
57652;DHT22;43480;53.116;6.734;2023-02-01T01:53:14;6.60;99.90
57652;DHT22;43480;53.116;6.734;2023-02-01T01:55:42;6.60;99.90
57652;DHT22;43480;53.116;6.734;2023-02-01T01:58:10;6.60;99.90
57652;DHT22;43480;53.116;6.734;2023-02-01T02:00:37;6.60;99.90
57652;DHT22;43480;53.116;6.734;2023-02-01T02:03:05;6.60;99.90
57652;DHT22;43480;53.116;6.734;2023-02-01T02:05:32;6.50;99.90
57652;DHT22;43480;53.116;6.734;2023-02-01T02:07:58;6.50;99.90
57652;DHT22;43480;53.116;6.734;2023-02-01T02:10:24;6.40;99.90
57652;DHT22;43480;53.116;6.734;2023-02-01T02:13:10;6.30;99.90
57652;DHT22;43480;53.116;6.734;2023-02-01T02:15:36;6.20;99.90
57652;DHT22;43480;53.116;6.734;2023-02-01T02:18:27;6.30;99.90
57652;DHT22;43480;53.116;6.734;2023-02-01T02:23:33;6.20;99.90
57652;DHT22;43480;53.116;6.734;2023-02-01T02:26:17;6.20;99.90
57652;DHT22;43480;53.116;6.734;2023-02-01T02:36:07;6.10;99.90
57652;DHT22;43480;53.116;6.734;2023-02-01T02:38:42;6.10;99.90
57652;DHT22;43480;53.116;6.734;2023-02-01T02:41:15;6.00;99.90
57652;DHT22;43480;53.116;6.734;2023-02-01T02:44:04;6.00;99.90
57652;DHT22;43480;53.116;6.734;2023-02-01T02:46:52;5.90;99.90
57652;DHT22;43480;53.116;6.734;2023-02-01T02:49:40;5.80;99.90
57652;DHT22;43480;53.116;6.734;2023-02-01T02:52:12;5.80;99.90
57652;DHT22;43480;53.116;6.734;2023-02-01T02:54:57;5.80;99.90
57652;DHT22;43480;53.116;6.734;2023-02-01T02:57:28;5.90;99.90
57652;DHT22;43480;53.116;6.734;2023-02-01T03:00:14;5.90;99.90
57652;DHT22;43480;53.116;6.734;2023-02-01T03:02:59;5.90;99.90
57652;DHT22;43480;53.116;6.734;2023-02-01T03:05:44;6.00;99.90
57652;DHT22;43480;53.116;6.734;2023-02-01T03:08:16;6.00;99.90
57652;DHT22;43480;53.116;6.734;2023-02-01T03:13:09;6.10;99.90
57652;DHT22;43480;53.116;6.734;2023-02-01T03:15:51;6.10;99.90
57652;DHT22;43480;53.116;6.734;2023-02-01T03:18:20;6.10;99.90
57652;DHT22;43480;53.116;6.734;2023-02-01T03:20:47;6.20;99.90
57652;DHT22;43480;53.116;6.734;2023-02-01T03:23:15;6.20;99.90
57652;DHT22;43480;53.116;6.734;2023-02-01T03:25:43;6.30;99.90
57652;DHT22;43480;53.116;6.734;2023-02-01T03:28:09;6.30;99.90
57652;DHT22;43480;53.116;6.734;2023-02-01T03:30:39;6.30;99.90
57652;DHT22;43480;53.116;6.734;2023-02-01T03:33:08;6.40;99.90
57652;DHT22;43480;53.116;6.734;2023-02-01T03:38:26;6.40;99.90
57652;DHT22;43480;53.116;6.734;2023-02-01T03:43:51;6.50;99.90
57652;DHT22;43480;53.116;6.734;2023-02-01T03:46:20;6.50;99.90
57652;DHT22;43480;53.116;6.734;2023-02-01T03:48:48;6.40;99.90
57652;DHT22;43480;53.116;6.734;2023-02-01T03:51:15;6.50;99.90
57652;DHT22;43480;53.116;6.734;2023-02-01T03:53:41;6.40;99.90
57652;DHT22;43480;53.116;6.734;2023-02-01T03:56:07;6.40;99.90
57652;DHT22;43480;53.116;6.734;2023-02-01T03:58:33;6.40;99.90
57652;DHT22;43480;53.116;6.734;2023-02-01T04:00:59;6.30;99.90
57652;DHT22;43480;53.116;6.734;2023-02-01T04:03:26;6.30;99.90
57652;DHT22;43480;53.116;6.734;2023-02-01T04:05:52;6.30;99.90
57652;DHT22;43480;53.116;6.734;2023-02-01T04:08:19;6.20;99.90
57652;DHT22;43480;53.116;6.734;2023-02-01T04:10:45;6.20;99.90
57652;DHT22;43480;53.116;6.734;2023-02-01T04:13:11;6.10;99.90
57652;DHT22;43480;53.116;6.734;2023-02-01T04:15:36;6.10;99.90
57652;DHT22;43480;53.116;6.734;2023-02-01T04:18:02;6.00;99.90
57652;DHT22;43480;53.116;6.734;2023-02-01T04:20:27;6.00;99.90
57652;DHT22;43480;53.116;6.734;2023-02-01T04:22:53;6.10;99.90
57652;DHT22;43480;53.116;6.734;2023-02-01T04:25:19;6.10;99.90
57652;DHT22;43480;53.116;6.734;2023-02-01T04:27:44;6.20;99.90
57652;DHT22;43480;53.116;6.734;2023-02-01T04:30:10;6.20;99.90
57652;DHT22;43480;53.116;6.734;2023-02-01T04:32:36;6.20;99.90
57652;DHT22;43480;53.116;6.734;2023-02-01T04:35:02;6.30;99.90
57652;DHT22;43480;53.116;6.734;2023-02-01T04:37:28;6.30;99.90
57652;DHT22;43480;53.116;6.734;2023-02-01T04:39:54;6.40;99.90
57652;DHT22;43480;53.116;6.734;2023-02-01T04:42:20;6.40;99.90
57652;DHT22;43480;53.116;6.734;2023-02-01T04:44:45;6.40;99.90
57652;DHT22;43480;53.116;6.734;2023-02-01T04:47:11;6.40;99.90
57652;DHT22;43480;53.116;6.734;2023-02-01T04:49:36;6.40;99.90
57652;DHT22;43480;53.116;6.734;2023-02-01T04:52:02;6.40;99.90
57652;DHT22;43480;53.116;6.734;2023-02-01T04:54:27;6.40;99.90
57652;DHT22;43480;53.116;6.734;2023-02-01T04:56:53;6.40;99.90
57652;DHT22;43480;53.116;6.734;2023-02-01T04:59:18;6.50;99.90
57652;DHT22;43480;53.116;6.734;2023-02-01T05:01:44;6.50;99.90
57652;DHT22;43480;53.116;6.734;2023-02-01T05:04:09;6.40;99.90
57652;DHT22;43480;53.116;6.734;2023-02-01T05:06:35;6.50;99.90
57652;DHT22;43480;53.116;6.734;2023-02-01T05:09:00;6.40;99.90
57652;DHT22;43480;53.116;6.734;2023-02-01T05:11:26;6.50;99.90
57652;DHT22;43480;53.116;6.734;2023-02-01T05:14:10;6.40;99.90
57652;DHT22;43480;53.116;6.734;2023-02-01T05:16:36;6.50;99.90
57652;DHT22;43480;53.116;6.734;2023-02-01T05:19:01;6.50;99.90
57652;DHT22;43480;53.116;6.734;2023-02-01T05:21:27;6.40;99.90
57652;DHT22;43480;53.116;6.734;2023-02-01T05:23:52;6.40;99.90
57652;DHT22;43480;53.116;6.734;2023-02-01T05:26:39;6.40;99.90
57652;DHT22;43480;53.116;6.734;2023-02-01T05:29:06;6.40;99.90
57652;DHT22;43480;53.116;6.734;2023-02-01T05:31:31;6.40;99.90
57652;DHT22;43480;53.116;6.734;2023-02-01T05:33:57;6.40;99.90
57652;DHT22;43480;53.116;6.734;2023-02-01T05:36:22;6.40;99.90
57652;DHT22;43480;53.116;6.734;2023-02-01T05:38:48;6.30;99.90
57652;DHT22;43480;53.116;6.734;2023-02-01T05:41:13;6.40;99.90
57652;DHT22;43480;53.116;6.734;2023-02-01T05:43:39;6.40;99.90
57652;DHT22;43480;53.116;6.734;2023-02-01T05:46:04;6.40;99.90
57652;DHT22;43480;53.116;6.734;2023-02-01T05:48:30;6.40;99.90
57652;DHT22;43480;53.116;6.734;2023-02-01T05:50:55;6.50;99.90
57652;DHT22;43480;53.116;6.734;2023-02-01T05:53:21;6.50;99.90
57652;DHT22;43480;53.116;6.734;2023-02-01T05:55:47;6.60;99.90
57652;DHT22;43480;53.116;6.734;2023-02-01T05:58:12;6.60;99.90
57652;DHT22;43480;53.116;6.734;2023-02-01T06:00:38;6.60;99.90
57652;DHT22;43480;53.116;6.734;2023-02-01T06:03:04;6.60;99.90
57652;DHT22;43480;53.116;6.734;2023-02-01T06:05:29;6.60;99.90
57652;DHT22;43480;53.116;6.734;2023-02-01T06:07:55;6.60;99.90
57652;DHT22;43480;53.116;6.734;2023-02-01T06:10:21;6.60;99.90
57652;DHT22;43480;53.116;6.734;2023-02-01T06:12:46;6.70;99.90
57652;DHT22;43480;53.116;6.734;2023-02-01T06:15:12;6.70;99.90
57652;DHT22;43480;53.116;6.734;2023-02-01T06:17:38;6.70;99.90
57652;DHT22;43480;53.116;6.734;2023-02-01T06:20:05;6.60;99.90
57652;DHT22;43480;53.116;6.734;2023-02-01T06:22:32;6.60;99.90
57652;DHT22;43480;53.116;6.734;2023-02-01T06:24:57;6.70;99.90
57652;DHT22;43480;53.116;6.734;2023-02-01T06:27:24;6.70;99.90
57652;DHT22;43480;53.116;6.734;2023-02-01T06:29:50;6.60;99.90
57652;DHT22;43480;53.116;6.734;2023-02-01T06:32:15;6.60;99.90
57652;DHT22;43480;53.116;6.734;2023-02-01T06:34:42;6.60;99.90
57652;DHT22;43480;53.116;6.734;2023-02-01T06:37:08;6.60;99.90
57652;DHT22;43480;53.116;6.734;2023-02-01T06:39:33;6.50;99.90
57652;DHT22;43480;53.116;6.734;2023-02-01T06:41:59;6.50;99.90
57652;DHT22;43480;53.116;6.734;2023-02-01T06:44:25;6.50;99.90
57652;DHT22;43480;53.116;6.734;2023-02-01T06:46:50;6.60;99.90
57652;DHT22;43480;53.116;6.734;2023-02-01T06:49:15;6.60;99.90
57652;DHT22;43480;53.116;6.734;2023-02-01T06:51:41;6.60;99.90
57652;DHT22;43480;53.116;6.734;2023-02-01T06:54:07;6.50;99.90
57652;DHT22;43480;53.116;6.734;2023-02-01T06:56:32;6.60;99.90
57652;DHT22;43480;53.116;6.734;2023-02-01T06:58:58;6.60;99.90
57652;DHT22;43480;53.116;6.734;2023-02-01T07:01:23;6.60;99.90
57652;DHT22;43480;53.116;6.734;2023-02-01T07:03:49;6.50;99.90
57652;DHT22;43480;53.116;6.734;2023-02-01T07:06:16;6.60;99.90
57652;DHT22;43480;53.116;6.734;2023-02-01T07:08:41;6.50;99.90
57652;DHT22;43480;53.116;6.734;2023-02-01T07:11:08;6.60;99.90
57652;DHT22;43480;53.116;6.734;2023-02-01T07:13:34;6.60;99.90
57652;DHT22;43480;53.116;6.734;2023-02-01T07:16:00;6.60;99.90
57652;DHT22;43480;53.116;6.734;2023-02-01T07:18:26;6.60;99.90
57652;DHT22;43480;53.116;6.734;2023-02-01T07:20:52;6.60;99.90
57652;DHT22;43480;53.116;6.734;2023-02-01T07:23:17;6.60;99.90
57652;DHT22;43480;53.116;6.734;2023-02-01T07:25:43;6.60;99.90
57652;DHT22;43480;53.116;6.734;2023-02-01T07:28:08;6.60;99.90
57652;DHT22;43480;53.116;6.734;2023-02-01T07:30:34;6.70;99.90
57652;DHT22;43480;53.116;6.734;2023-02-01T07:32:59;6.60;99.90
57652;DHT22;43480;53.116;6.734;2023-02-01T07:35:27;6.70;99.90
57652;DHT22;43480;53.116;6.734;2023-02-01T07:37:52;6.70;99.90
57652;DHT22;43480;53.116;6.734;2023-02-01T07:40:18;6.70;99.90
57652;DHT22;43480;53.116;6.734;2023-02-01T07:42:43;6.70;99.90
57652;DHT22;43480;53.116;6.734;2023-02-01T07:45:09;6.70;99.90
57652;DHT22;43480;53.116;6.734;2023-02-01T07:47:35;6.70;99.90
57652;DHT22;43480;53.116;6.734;2023-02-01T07:50:00;6.60;99.90
57652;DHT22;43480;53.116;6.734;2023-02-01T07:52:27;6.70;99.90
57652;DHT22;43480;53.116;6.734;2023-02-01T07:54:53;6.70;99.90
57652;DHT22;43480;53.116;6.734;2023-02-01T07:57:18;6.70;99.90
57652;DHT22;43480;53.116;6.734;2023-02-01T07:59:44;6.70;99.90
57652;DHT22;43480;53.116;6.734;2023-02-01T08:02:28;6.70;99.90
57652;DHT22;43480;53.116;6.734;2023-02-01T08:04:54;6.70;99.90
57652;DHT22;43480;53.116;6.734;2023-02-01T08:07:19;6.70;99.90
57652;DHT22;43480;53.116;6.734;2023-02-01T08:09:45;6.60;99.90
57652;DHT22;43480;53.116;6.734;2023-02-01T08:12:11;6.70;99.90
57652;DHT22;43480;53.116;6.734;2023-02-01T08:14:36;6.70;99.90
57652;DHT22;43480;53.116;6.734;2023-02-01T08:17:02;6.70;99.90
57652;DHT22;43480;53.116;6.734;2023-02-01T08:19:27;6.70;99.90
57652;DHT22;43480;53.116;6.734;2023-02-01T08:21:53;6.70;99.90
57652;DHT22;43480;53.116;6.734;2023-02-01T08:24:18;6.60;99.90
57652;DHT22;43480;53.116;6.734;2023-02-01T08:26:44;6.60;99.90
57652;DHT22;43480;53.116;6.734;2023-02-01T08:29:09;6.60;99.90
57652;DHT22;43480;53.116;6.734;2023-02-01T08:31:37;6.60;99.90
57652;DHT22;43480;53.116;6.734;2023-02-01T08:34:05;6.70;99.90
57652;DHT22;43480;53.116;6.734;2023-02-01T08:36:33;6.70;99.90
57652;DHT22;43480;53.116;6.734;2023-02-01T08:38:58;6.70;99.90
57652;DHT22;43480;53.116;6.734;2023-02-01T08:41:28;6.70;99.90
57652;DHT22;43480;53.116;6.734;2023-02-01T08:43:55;6.70;99.90
57652;DHT22;43480;53.116;6.734;2023-02-01T08:46:20;6.80;99.90
57652;DHT22;43480;53.116;6.734;2023-02-01T08:48:46;6.80;99.90
57652;DHT22;43480;53.116;6.734;2023-02-01T08:51:15;6.80;99.90
57652;DHT22;43480;53.116;6.734;2023-02-01T08:53:42;6.70;99.90
57652;DHT22;43480;53.116;6.734;2023-02-01T08:56:08;6.80;99.90
57652;DHT22;43480;53.116;6.734;2023-02-01T08:58:34;6.70;99.90
57652;DHT22;43480;53.116;6.734;2023-02-01T09:01:04;6.70;99.90
57652;DHT22;43480;53.116;6.734;2023-02-01T09:03:30;6.70;99.90
57652;DHT22;43480;53.116;6.734;2023-02-01T09:05:59;6.80;99.90
57652;DHT22;43480;53.116;6.734;2023-02-01T09:08:25;6.80;99.90
57652;DHT22;43480;53.116;6.734;2023-02-01T09:10:50;6.70;99.90
57652;DHT22;43480;53.116;6.734;2023-02-01T09:13:16;6.70;99.90
57652;DHT22;43480;53.116;6.734;2023-02-01T09:15:42;6.70;99.90
57652;DHT22;43480;53.116;6.734;2023-02-01T09:18:07;6.80;99.90
57652;DHT22;43480;53.116;6.734;2023-02-01T09:20:32;6.80;99.90
57652;DHT22;43480;53.116;6.734;2023-02-01T09:22:58;6.80;99.90
57652;DHT22;43480;53.116;6.734;2023-02-01T09:25:25;6.80;99.90
57652;DHT22;43480;53.116;6.734;2023-02-01T09:27:51;6.80;99.90
57652;DHT22;43480;53.116;6.734;2023-02-01T09:30:16;6.80;99.90
57652;DHT22;43480;53.116;6.734;2023-02-01T09:32:42;6.80;99.90
57652;DHT22;43480;53.116;6.734;2023-02-01T09:35:07;6.80;99.90
57652;DHT22;43480;53.116;6.734;2023-02-01T09:37:33;6.80;99.90
57652;DHT22;43480;53.116;6.734;2023-02-01T09:39:59;6.80;99.90
57652;DHT22;43480;53.116;6.734;2023-02-01T09:42:29;6.80;99.90
57652;DHT22;43480;53.116;6.734;2023-02-01T09:45:15;6.80;99.90
57652;DHT22;43480;53.116;6.734;2023-02-01T09:47:47;6.80;99.90
57652;DHT22;43480;53.116;6.734;2023-02-01T09:50:16;6.80;99.90
57652;DHT22;43480;53.116;6.734;2023-02-01T09:55:13;6.90;99.90
57652;DHT22;43480;53.116;6.734;2023-02-01T09:57:42;6.90;99.90
57652;DHT22;43480;53.116;6.734;2023-02-01T10:00:16;6.80;99.90
57652;DHT22;43480;53.116;6.734;2023-02-01T10:02:43;6.60;99.90
57652;DHT22;43480;53.116;6.734;2023-02-01T10:05:12;6.50;99.90
57652;DHT22;43480;53.116;6.734;2023-02-01T10:07:56;6.50;99.90
57652;DHT22;43480;53.116;6.734;2023-02-01T10:10:28;6.50;99.90
57652;DHT22;43480;53.116;6.734;2023-02-01T10:13:09;6.40;99.90
57652;DHT22;43480;53.116;6.734;2023-02-01T10:15:43;6.50;99.90
57652;DHT22;43480;53.116;6.734;2023-02-01T10:23:51;6.30;99.90
57652;DHT22;43480;53.116;6.734;2023-02-01T10:26:25;6.30;99.90
57652;DHT22;43480;53.116;6.734;2023-02-01T10:29:01;6.30;99.90
57652;DHT22;43480;53.116;6.734;2023-02-01T10:31:31;6.30;99.90
57652;DHT22;43480;53.116;6.734;2023-02-01T10:34:01;6.30;99.90
57652;DHT22;43480;53.116;6.734;2023-02-01T10:36:37;6.30;99.90
57652;DHT22;43480;53.116;6.734;2023-02-01T10:39:04;6.40;99.90
57652;DHT22;43480;53.116;6.734;2023-02-01T10:41:35;6.40;99.90
57652;DHT22;43480;53.116;6.734;2023-02-01T10:44:03;6.40;99.90
57652;DHT22;43480;53.116;6.734;2023-02-01T10:46:29;6.50;99.90
57652;DHT22;43480;53.116;6.734;2023-02-01T10:48:55;6.60;99.90
57652;DHT22;43480;53.116;6.734;2023-02-01T10:51:22;6.70;99.90
57652;DHT22;43480;53.116;6.734;2023-02-01T10:56:18;6.90;99.90
57652;DHT22;43480;53.116;6.734;2023-02-01T10:58:46;7.00;99.90
57652;DHT22;43480;53.116;6.734;2023-02-01T11:01:16;7.10;99.90
57652;DHT22;43480;53.116;6.734;2023-02-01T11:03:58;7.10;99.90
57652;DHT22;43480;53.116;6.734;2023-02-01T11:06:29;7.10;99.90
57652;DHT22;43480;53.116;6.734;2023-02-01T11:09:16;7.00;99.90
57652;DHT22;43480;53.116;6.734;2023-02-01T11:14:17;6.60;99.90
57652;DHT22;43480;53.116;6.734;2023-02-01T11:16:47;6.40;99.90
57652;DHT22;43480;53.116;6.734;2023-02-01T11:19:14;6.30;99.90
57652;DHT22;43480;53.116;6.734;2023-02-01T11:21:40;6.30;99.90
57652;DHT22;43480;53.116;6.734;2023-02-01T11:24:06;6.30;99.90
57652;DHT22;43480;53.116;6.734;2023-02-01T11:26:39;6.40;99.90
57652;DHT22;43480;53.116;6.734;2023-02-01T11:29:10;6.50;99.90
57652;DHT22;43480;53.116;6.734;2023-02-01T11:31:37;6.50;99.90
57652;DHT22;43480;53.116;6.734;2023-02-01T11:34:13;6.50;99.90
57652;DHT22;43480;53.116;6.734;2023-02-01T11:36:39;6.30;99.90
57652;DHT22;43480;53.116;6.734;2023-02-01T11:39:15;6.30;99.90
57652;DHT22;43480;53.116;6.734;2023-02-01T11:41:44;6.20;99.90
57652;DHT22;43480;53.116;6.734;2023-02-01T11:44:22;6.20;99.90
57652;DHT22;43480;53.116;6.734;2023-02-01T11:46:51;6.30;99.90
57652;DHT22;43480;53.116;6.734;2023-02-01T11:49:21;6.40;99.90
57652;DHT22;43480;53.116;6.734;2023-02-01T11:52:03;6.50;99.90
57652;DHT22;43480;53.116;6.734;2023-02-01T11:54:38;6.60;99.90
57652;DHT22;43480;53.116;6.734;2023-02-01T11:57:17;6.70;99.90
57652;DHT22;43480;53.116;6.734;2023-02-01T11:59:51;6.80;99.90
57652;DHT22;43480;53.116;6.734;2023-02-01T12:07:36;6.90;99.90
57652;DHT22;43480;53.116;6.734;2023-02-01T12:15:06;6.90;99.90
57652;DHT22;43480;53.116;6.734;2023-02-01T12:25:20;7.30;99.90
57652;DHT22;43480;53.116;6.734;2023-02-01T12:27:57;7.40;99.90
57652;DHT22;43480;53.116;6.734;2023-02-01T12:33:02;7.60;99.90
57652;DHT22;43480;53.116;6.734;2023-02-01T12:43:00;7.90;99.90
57652;DHT22;43480;53.116;6.734;2023-02-01T12:45:30;8.10;99.90
57652;DHT22;43480;53.116;6.734;2023-02-01T12:47:58;8.20;99.90
57652;DHT22;43480;53.116;6.734;2023-02-01T12:50:33;8.20;99.90
57652;DHT22;43480;53.116;6.734;2023-02-01T12:53:07;8.10;99.90
57652;DHT22;43480;53.116;6.734;2023-02-01T12:55:35;8.00;99.90
57652;DHT22;43480;53.116;6.734;2023-02-01T13:00:30;7.90;99.90
57652;DHT22;43480;53.116;6.734;2023-02-01T13:03:03;7.90;99.90
57652;DHT22;43480;53.116;6.734;2023-02-01T13:05:40;7.90;99.90
57652;DHT22;43480;53.116;6.734;2023-02-01T13:08:14;8.00;99.90
57652;DHT22;43480;53.116;6.734;2023-02-01T13:10:43;8.00;99.90
57652;DHT22;43480;53.116;6.734;2023-02-01T13:15:44;8.00;99.90
57652;DHT22;43480;53.116;6.734;2023-02-01T13:18:13;8.00;99.90
57652;DHT22;43480;53.116;6.734;2023-02-01T13:20:47;8.00;99.90
57652;DHT22;43480;53.116;6.734;2023-02-01T13:23:22;8.00;99.90
57652;DHT22;43480;53.116;6.734;2023-02-01T13:25:50;7.90;99.90
57652;DHT22;43480;53.116;6.734;2023-02-01T13:30:53;7.90;99.90
57652;DHT22;43480;53.116;6.734;2023-02-01T13:41:41;8.00;99.90
57652;DHT22;43480;53.116;6.734;2023-02-01T13:44:11;8.00;99.90
57652;DHT22;43480;53.116;6.734;2023-02-01T13:46:44;8.00;99.90
57652;DHT22;43480;53.116;6.734;2023-02-01T13:49:18;8.00;99.90
57652;DHT22;43480;53.116;6.734;2023-02-01T13:51:45;8.00;99.90
57652;DHT22;43480;53.116;6.734;2023-02-01T13:57:01;8.00;99.90
57652;DHT22;43480;53.116;6.734;2023-02-01T14:03:07;8.10;99.90
57652;DHT22;43480;53.116;6.734;2023-02-01T14:04:56;8.10;99.90
57652;DHT22;43480;53.116;6.734;2023-02-01T14:07:22;8.00;99.90
57652;DHT22;43480;53.116;6.734;2023-02-01T14:09:47;8.10;99.90
57652;DHT22;43480;53.116;6.734;2023-02-01T14:15:17;8.10;99.90
57652;DHT22;43480;53.116;6.734;2023-02-01T14:17:43;8.00;99.90
57652;DHT22;43480;53.116;6.734;2023-02-01T14:23:00;7.90;99.90
57652;DHT22;43480;53.116;6.734;2023-02-01T14:25:31;7.90;99.90
57652;DHT22;43480;53.116;6.734;2023-02-01T14:27:57;7.90;99.90
57652;DHT22;43480;53.116;6.734;2023-02-01T14:30:22;7.90;99.90
57652;DHT22;43480;53.116;6.734;2023-02-01T14:32:48;7.90;99.90
57652;DHT22;43480;53.116;6.734;2023-02-01T14:35:18;7.90;99.90
57652;DHT22;43480;53.116;6.734;2023-02-01T14:37:44;7.90;99.90
57652;DHT22;43480;53.116;6.734;2023-02-01T14:45:49;8.00;99.90
57652;DHT22;43480;53.116;6.734;2023-02-01T14:55:44;8.10;99.90
57652;DHT22;43480;53.116;6.734;2023-02-01T14:58:15;8.10;99.90
57652;DHT22;43480;53.116;6.734;2023-02-01T15:00:54;8.10;99.90
57652;DHT22;43480;53.116;6.734;2023-02-01T15:05:55;8.10;99.90
57652;DHT22;43480;53.116;6.734;2023-02-01T15:08:24;8.00;99.90
57652;DHT22;43480;53.116;6.734;2023-02-01T15:10:51;7.90;99.90
57652;DHT22;43480;53.116;6.734;2023-02-01T15:13:18;7.90;99.90
57652;DHT22;43480;53.116;6.734;2023-02-01T15:15:44;7.90;99.90
57652;DHT22;43480;53.116;6.734;2023-02-01T15:18:14;7.90;99.90
57652;DHT22;43480;53.116;6.734;2023-02-01T15:20:41;7.80;99.90
57652;DHT22;43480;53.116;6.734;2023-02-01T15:23:15;7.80;99.90
57652;DHT22;43480;53.116;6.734;2023-02-01T15:25:44;7.80;99.90
57652;DHT22;43480;53.116;6.734;2023-02-01T15:28:12;7.80;99.90
57652;DHT22;43480;53.116;6.734;2023-02-01T15:30:38;7.80;99.90
57652;DHT22;43480;53.116;6.734;2023-02-01T15:35:37;7.90;99.90
57652;DHT22;43480;53.116;6.734;2023-02-01T15:43:19;7.80;99.90
57652;DHT22;43480;53.116;6.734;2023-02-01T15:45:44;7.90;99.90
57652;DHT22;43480;53.116;6.734;2023-02-01T15:48:11;7.80;99.90
57652;DHT22;43480;53.116;6.734;2023-02-01T15:50:39;7.70;99.90
57652;DHT22;43480;53.116;6.734;2023-02-01T15:53:05;7.60;99.90
57652;DHT22;43480;53.116;6.734;2023-02-01T15:58:04;7.60;99.90
57652;DHT22;43480;53.116;6.734;2023-02-01T16:00:31;7.60;99.90
57652;DHT22;43480;53.116;6.734;2023-02-01T16:03:04;7.60;99.90
57652;DHT22;43480;53.116;6.734;2023-02-01T16:05:32;7.50;99.90
57652;DHT22;43480;53.116;6.734;2023-02-01T16:08:06;7.50;99.90
57652;DHT22;43480;53.116;6.734;2023-02-01T16:10:39;7.50;99.90
57652;DHT22;43480;53.116;6.734;2023-02-01T16:13:06;7.50;99.90
57652;DHT22;43480;53.116;6.734;2023-02-01T16:15:32;7.40;99.90
57652;DHT22;43480;53.116;6.734;2023-02-01T16:17:58;7.40;99.90
57652;DHT22;43480;53.116;6.734;2023-02-01T16:20:23;7.40;99.90
57652;DHT22;43480;53.116;6.734;2023-02-01T16:22:49;7.40;99.90
57652;DHT22;43480;53.116;6.734;2023-02-01T16:25:14;7.30;99.90
57652;DHT22;43480;53.116;6.734;2023-02-01T16:27:40;7.20;99.90
57652;DHT22;43480;53.116;6.734;2023-02-01T16:30:05;7.20;99.90
57652;DHT22;43480;53.116;6.734;2023-02-01T16:32:34;7.20;99.90
57652;DHT22;43480;53.116;6.734;2023-02-01T16:35:04;7.20;99.90
57652;DHT22;43480;53.116;6.734;2023-02-01T16:37:30;7.10;99.90
57652;DHT22;43480;53.116;6.734;2023-02-01T16:39:57;7.10;99.90
57652;DHT22;43480;53.116;6.734;2023-02-01T16:42:23;7.10;99.90
57652;DHT22;43480;53.116;6.734;2023-02-01T16:44:48;7.10;99.90
57652;DHT22;43480;53.116;6.734;2023-02-01T16:47:17;7.10;99.90
57652;DHT22;43480;53.116;6.734;2023-02-01T16:49:44;7.10;99.90
57652;DHT22;43480;53.116;6.734;2023-02-01T16:52:13;7.00;99.90
57652;DHT22;43480;53.116;6.734;2023-02-01T16:54:39;7.00;99.90
57652;DHT22;43480;53.116;6.734;2023-02-01T16:57:07;7.00;99.90
57652;DHT22;43480;53.116;6.734;2023-02-01T16:59:35;7.00;99.90
57652;DHT22;43480;53.116;6.734;2023-02-01T17:02:01;6.90;99.90
57652;DHT22;43480;53.116;6.734;2023-02-01T17:04:26;6.90;99.90
57652;DHT22;43480;53.116;6.734;2023-02-01T17:06:52;6.80;99.90
57652;DHT22;43480;53.116;6.734;2023-02-01T17:09:17;6.80;99.90
57652;DHT22;43480;53.116;6.734;2023-02-01T17:11:43;6.70;99.90
57652;DHT22;43480;53.116;6.734;2023-02-01T17:14:16;6.70;99.90
57652;DHT22;43480;53.116;6.734;2023-02-01T17:16:41;6.70;99.90
57652;DHT22;43480;53.116;6.734;2023-02-01T17:19:14;6.70;99.90
57652;DHT22;43480;53.116;6.734;2023-02-01T17:21:43;6.80;99.90
57652;DHT22;43480;53.116;6.734;2023-02-01T17:24:10;6.80;99.90
57652;DHT22;43480;53.116;6.734;2023-02-01T17:26:36;6.80;99.90
57652;DHT22;43480;53.116;6.734;2023-02-01T17:29:02;6.90;99.90
57652;DHT22;43480;53.116;6.734;2023-02-01T17:31:28;6.90;99.90
57652;DHT22;43480;53.116;6.734;2023-02-01T17:33:53;6.90;99.90
57652;DHT22;43480;53.116;6.734;2023-02-01T17:36:18;6.80;99.90
57652;DHT22;43480;53.116;6.734;2023-02-01T17:38:44;6.80;99.90
57652;DHT22;43480;53.116;6.734;2023-02-01T17:41:10;6.80;99.90
57652;DHT22;43480;53.116;6.734;2023-02-01T17:43:36;6.80;99.90